Time;durP1;ratioP1;P1;durP2;ratioP2;P2;SDS_P1;SDS_P2;PMS_P1;PMS_P2;Temp;Humidity;BMP_temperature;BMP_pressure;BME280_temperature;BME280_humidity;BME280_pressure;Samples;Min_cycle;Max_cycle;Signal;HPM_P1;HPM_P2
2022/10/13 00:01:35;;;;;;;11.38;5.35;;;;;;;4.08;87.12;102063.33;1893596;76;21063;-59
2022/10/13 00:04:04;;;;;;;16.10;6.47;;;;;;;4.06;87.04;102061.59;1893573;76;21043;-59
2022/10/13 00:06:32;;;;;;;12.18;6.12;;;;;;;4.06;87.05;102067.25;1893478;76;21145;-60
2022/10/13 00:09:01;;;;;;;11.05;7.45;;;;;;;4.06;87.11;102065.95;1893286;76;21177;-60
2022/10/13 00:11:31;;;;;;;17.17;7.40;;;;;;;4.08;87.09;102068.13;1893568;76;21055;-59
2022/10/13 00:14:02;;;;;;;14.28;7.70;;;;;;;4.10;87.10;102062.50;1893554;76;21145;-60
2022/10/13 00:16:32;;;;;;;14.13;6.55;;;;;;;4.13;87.00;102066.45;1893576;76;21028;-58
2022/10/13 00:19:01;;;;;;;15.15;7.12;;;;;;;4.14;86.94;102064.70;1893535;76;21095;-59
2022/10/13 00:21:29;;;;;;;10.85;5.78;;;;;;;4.11;87.07;102061.63;1893329;76;21071;-61
2022/10/13 00:23:58;;;;;;;13.18;6.72;;;;;;;4.09;87.11;102058.13;1893566;76;21102;-62
2022/10/13 00:26:27;;;;;;;14.65;8.15;;;;;;;4.06;87.18;102062.03;1893523;76;21044;-61
2022/10/13 00:28:56;;;;;;;14.25;6.62;;;;;;;4.02;87.16;102058.53;1893532;76;21522;-60
2022/10/13 00:31:28;;;;;;;11.18;5.85;;;;;;;3.99;87.34;102060.23;1893434;76;21478;-60
2022/10/13 00:33:59;;;;;;;11.80;6.12;;;;;;;3.96;87.39;102058.89;1893414;76;21556;-57
2022/10/13 00:36:29;;;;;;;12.47;7.15;;;;;;;3.91;87.46;102063.17;1893563;76;21051;-59
2022/10/13 00:38:58;;;;;;;17.60;7.42;;;;;;;3.89;87.55;102058.38;1893514;76;21479;-62
2022/10/13 00:41:27;;;;;;;15.80;6.85;;;;;;;3.88;87.56;102060.56;1893763;76;21474;-60
2022/10/13 00:43:59;;;;;;;12.35;6.83;;;;;;;3.88;87.51;102052.75;1893429;76;21552;-60
2022/10/13 00:46:33;;;;;;;14.10;7.22;;;;;;;3.85;87.50;102058.38;1859901;77;21169;-62
2022/10/13 00:49:13;;;;;;;15.85;7.28;;;;;;;3.84;87.48;102059.22;1860064;77;21056;-60
2022/10/13 00:52:04;;;;;;;16.52;7.53;;;;;;;3.82;87.46;102060.94;1859511;77;21120;-62
2022/10/13 00:54:32;;;;;;;23.25;9.70;;;;;;;3.80;87.44;102052.23;1859399;77;21066;-59
2022/10/13 00:57:04;;;;;;;14.35;8.45;;;;;;;3.80;87.46;102055.25;1859552;77;21109;-58
2022/10/13 00:59:33;;;;;;;17.70;7.47;;;;;;;3.76;87.38;102056.98;1859533;77;21062;-60
2022/10/13 01:02:03;;;;;;;13.40;8.73;;;;;;;3.72;87.37;102055.17;1859660;77;21050;-57
2022/10/13 01:04:36;;;;;;;17.10;8.40;;;;;;;3.69;87.39;102053.86;1859445;77;21547;-57
2022/10/13 01:07:05;;;;;;;18.20;9.57;;;;;;;3.66;87.41;102058.59;1859714;77;21062;-59
2022/10/13 01:09:36;;;;;;;17.80;8.73;;;;;;;3.63;87.50;102056.38;1859588;77;22225;-56
2022/10/13 01:12:29;;;;;;;13.22;6.92;;;;;;;3.61;87.46;102055.49;1859594;77;21140;-57
2022/10/13 01:15:01;;;;;;;17.55;10.30;;;;;;;3.57;87.47;102054.58;1857206;77;21509;-57
2022/10/13 01:17:33;;;;;;;17.50;9.78;;;;;;;3.53;87.68;102049.34;1859487;77;21136;-58
2022/10/13 01:20:21;;;;;;;18.50;9.40;;;;;;;3.51;87.87;102051.06;1859560;77;21030;-57
2022/10/13 01:23:22;;;;;;;17.85;9.33;;;;;;;3.48;88.14;102050.14;1849623;77;21503;-61
2022/10/13 01:25:56;;;;;;;18.45;9.45;;;;;;;3.52;87.97;102056.70;1841754;77;21042;-61
2022/10/13 01:28:42;;;;;;;19.57;9.18;;;;;;;3.55;87.88;102052.83;1844721;77;21148;-61
2022/10/13 01:31:25;;;;;;;18.12;8.65;;;;;;;3.57;87.74;102051.98;1859411;77;21060;-58
2022/10/13 01:34:12;;;;;;;16.93;10.23;;;;;;;3.58;87.61;102052.84;1858915;77;21044;-58
2022/10/13 01:37:02;;;;;;;22.55;8.48;;;;;;;3.57;87.84;102051.98;1859322;77;21181;-61
2022/10/13 01:39:39;;;;;;;18.07;7.65;;;;;;;3.54;87.97;102049.77;1859735;77;21114;-61
2022/10/13 01:42:24;;;;;;;15.75;8.45;;;;;;;3.48;88.19;102044.93;1859322;77;21137;-61
2022/10/13 01:44:56;;;;;;;22.58;9.65;;;;;;;3.45;88.35;102047.52;1858249;77;21137;-61
2022/10/13 01:47:26;;;;;;;18.70;8.00;;;;;;;3.45;88.22;102046.66;1859227;77;21078;-63
2022/10/13 01:49:56;;;;;;;18.27;8.95;;;;;;;3.43;88.36;102046.63;1859623;77;21195;-62
2022/10/13 01:52:27;;;;;;;19.75;8.30;;;;;;;3.42;88.43;102050.08;1859564;77;21474;-62
2022/10/13 01:54:56;;;;;;;13.40;7.33;;;;;;;3.42;88.51;102045.31;1888314;76;21059;-61
2022/10/13 01:57:36;;;;;;;16.50;7.05;;;;;;;3.41;88.58;102047.45;1889503;76;21143;-61
2022/10/13 02:00:18;;;;;;;14.40;6.62;;;;;;;3.40;88.62;102050.93;1889723;76;21074;-59
2022/10/13 02:02:55;;;;;;;19.12;7.72;;;;;;;3.37;88.63;102053.05;1889729;76;21019;-60
2022/10/13 02:05:36;;;;;;;16.07;8.00;;;;;;;3.34;88.59;102055.64;1889695;76;21111;-59
2022/10/13 02:08:10;;;;;;;15.75;7.70;;;;;;;3.31;88.62;102050.82;1889164;76;21149;-60
2022/10/13 02:11:00;;;;;;;13.48;7.30;;;;;;;3.26;88.64;102050.75;1884666;76;21114;-62
2022/10/13 02:13:31;;;;;;;18.77;7.33;;;;;;;3.23;88.68;102049.44;1889915;75;21079;-60
2022/10/13 02:16:02;;;;;;;15.20;6.85;;;;;;;3.19;88.81;102051.53;1887140;75;21611;-54
2022/10/13 02:18:33;;;;;;;12.95;6.28;;;;;;;3.14;88.80;102043.67;1881948;76;21104;-55
2022/10/13 02:21:04;;;;;;;19.27;7.37;;;;;;;3.15;88.87;102044.54;1882137;76;21505;-55
2022/10/13 02:23:33;;;;;;;17.85;7.67;;;;;;;3.12;88.94;102045.39;1873154;76;21011;-55
2022/10/13 02:26:02;;;;;;;16.30;8.23;;;;;;;3.12;89.03;102047.09;1877864;76;21063;-56
2022/10/13 02:28:31;;;;;;;10.15;5.37;;;;;;;3.08;89.04;102043.58;1889869;76;21187;-56
2022/10/13 02:30:59;;;;;;;18.85;7.67;;;;;;;3.07;89.12;102047.05;1885609;76;21181;-57
2022/10/13 02:33:28;;;;;;;17.87;7.47;;;;;;;3.05;89.05;102043.13;1875404;76;21135;-55
2022/10/13 02:35:57;;;;;;;11.97;7.15;;;;;;;3.04;89.00;102044.00;1889724;76;21067;-55
2022/10/13 02:38:26;;;;;;;17.55;7.90;;;;;;;3.05;89.08;102042.26;1877434;76;21134;-56
2022/10/13 02:40:55;;;;;;;19.95;8.03;;;;;;;3.04;89.15;102045.30;1889176;76;21051;-55
2022/10/13 02:43:24;;;;;;;16.30;8.28;;;;;;;3.03;89.18;102048.73;1886252;76;21251;-55
2022/10/13 02:45:53;;;;;;;15.97;8.10;;;;;;;3.01;89.26;102046.55;1879700;76;21039;-53
2022/10/13 02:48:22;;;;;;;20.35;9.48;;;;;;;3.01;89.21;102043.95;1885990;76;21011;-54
2022/10/13 02:50:51;;;;;;;15.25;8.75;;;;;;;3.01;89.20;102045.25;1889042;76;21062;-52
2022/10/13 02:53:20;;;;;;;20.77;9.60;;;;;;;2.98;89.24;102041.73;1889794;76;21039;-49
2022/10/13 02:55:49;;;;;;;17.15;9.98;;;;;;;2.96;89.25;102035.63;1889687;76;21093;-52
2022/10/13 02:58:17;;;;;;;22.37;10.43;;;;;;;2.96;89.29;102041.70;1889722;76;21134;-55
2022/10/13 03:00:46;;;;;;;19.45;10.28;;;;;;;2.97;89.30;102045.17;1889549;76;21048;-57
2022/10/13 03:03:15;;;;;;;23.30;10.48;;;;;;;2.96;89.28;102043.00;1889659;76;21102;-56
2022/10/13 03:05:45;;;;;;;17.85;10.48;;;;;;;2.95;89.43;102045.17;1857837;77;21038;-54
2022/10/13 03:08:14;;;;;;;18.70;9.08;;;;;;;2.92;89.44;102045.12;1857727;77;21129;-54
2022/10/13 03:10:44;;;;;;;25.25;9.43;;;;;;;2.92;89.37;102044.26;1857807;77;21065;-56
2022/10/13 03:13:13;;;;;;;17.27;9.13;;;;;;;2.93;89.40;102045.98;1857945;77;21054;-55
2022/10/13 03:15:41;;;;;;;18.27;10.45;;;;;;;2.93;89.40;102041.65;1884180;76;21120;-54
2022/10/13 03:18:10;;;;;;;24.02;10.58;;;;;;;2.93;89.50;102043.39;1889734;76;21099;-54
2022/10/13 03:20:39;;;;;;;18.75;9.48;;;;;;;2.92;89.56;102046.86;1889690;76;21105;-53
2022/10/13 03:23:08;;;;;;;20.85;9.73;;;;;;;2.92;89.57;102040.36;1889831;76;21079;-54
2022/10/13 03:25:37;;;;;;;14.05;7.85;;;;;;;2.90;89.60;102040.33;1889805;76;21059;-53
2022/10/13 03:28:06;;;;;;;19.80;10.30;;;;;;;2.89;89.53;102037.27;1889768;76;21508;-53
2022/10/13 03:30:36;;;;;;;21.48;9.65;;;;;;;2.86;89.60;102032.05;1889555;76;21136;-52
2022/10/13 03:33:05;;;;;;;18.98;9.38;;;;;;;2.86;89.59;102040.72;1889777;76;21128;-53
2022/10/13 03:35:34;;;;;;;19.42;9.45;;;;;;;2.87;89.62;102038.98;1889614;76;21224;-52
2022/10/13 03:38:02;;;;;;;14.23;8.53;;;;;;;2.88;89.67;102037.70;1889800;76;21058;-51
2022/10/13 03:40:34;;;;;;;19.73;10.48;;;;;;;2.90;89.63;102038.59;1889428;76;21050;-53
2022/10/13 03:43:03;;;;;;;17.23;8.73;;;;;;;2.89;89.63;102038.56;1889675;76;21047;-52
2022/10/13 03:45:32;;;;;;;22.17;10.58;;;;;;;2.85;89.57;102045.45;1889742;76;21074;-57
2022/10/13 03:48:00;;;;;;;23.65;11.73;;;;;;;2.81;89.54;102046.27;1889596;76;21123;-56
2022/10/13 03:50:29;;;;;;;20.32;10.82;;;;;;;2.77;89.56;102039.72;1889747;76;21087;-54
2022/10/13 03:52:58;;;;;;;22.75;12.98;;;;;;;2.73;89.56;102047.01;1889776;76;21118;-54
2022/10/13 03:55:26;;;;;;;27.48;15.38;;;;;;;2.72;89.67;102043.98;1891455;76;21084;-54
2022/10/13 03:57:55;;;;;;;23.20;12.63;;;;;;;2.72;89.76;102036.17;1893165;76;21072;-53
2022/10/13 04:00:24;;;;;;;24.77;14.55;;;;;;;2.75;89.79;102044.00;1892897;76;21148;-54
2022/10/13 04:02:53;;;;;;;26.27;13.93;;;;;;;2.77;89.78;102044.92;1893101;76;21040;-55
2022/10/13 04:05:22;;;;;;;25.12;13.62;;;;;;;2.80;89.80;102045.81;1893098;76;21040;-56
2022/10/13 04:07:50;;;;;;;20.45;10.25;;;;;;;2.87;89.81;102049.38;1893120;76;21102;-56
2022/10/13 04:10:24;;;;;;;27.77;13.18;;;;;;;2.95;89.63;102046.48;1892717;76;21063;-55
2022/10/13 04:12:52;;;;;;;28.90;15.30;;;;;;;3.05;89.50;102054.83;1892936;76;21024;-54
2022/10/13 04:15:21;;;;;;;28.98;12.33;;;;;;;3.14;89.42;102049.31;1893131;76;21048;-56
2022/10/13 04:17:50;;;;;;;26.62;13.80;;;;;;;3.20;89.43;102050.69;1893130;76;21036;-56
2022/10/13 04:20:19;;;;;;;27.93;11.93;;;;;;;3.24;89.43;102047.26;1893143;76;21140;-54
2022/10/13 04:22:48;;;;;;;23.77;12.78;;;;;;;3.27;89.39;102049.47;1893131;76;21013;-55
2022/10/13 04:25:16;;;;;;;24.20;10.25;;;;;;;3.32;89.37;102052.15;1892981;76;21044;-57
2022/10/13 04:27:47;;;;;;;27.98;11.70;;;;;;;3.42;89.29;102061.80;1893170;76;21012;-51
2022/10/13 04:30:16;;;;;;;22.87;11.10;;;;;;;3.53;89.15;102053.25;1893170;76;21064;-54
2022/10/13 04:32:44;;;;;;;25.25;10.35;;;;;;;3.63;88.99;102061.59;1893151;76;21044;-52
2022/10/13 04:35:14;;;;;;;20.10;9.53;;;;;;;3.71;88.91;102056.05;1893257;76;21064;-57
2022/10/13 04:37:43;;;;;;;22.62;10.45;;;;;;;3.81;88.79;102059.17;1892995;76;21052;-57
2022/10/13 04:40:14;;;;;;;24.47;9.75;;;;;;;3.89;88.68;102053.17;1893244;76;21161;-56
2022/10/13 04:42:42;;;;;;;17.35;8.95;;;;;;;3.97;88.61;102061.95;1893225;76;21126;-56
2022/10/13 04:45:11;;;;;;;19.23;7.92;;;;;;;4.06;88.54;102064.64;1893141;76;21054;-55
2022/10/13 04:47:42;;;;;;;12.60;7.55;;;;;;;4.17;88.41;102065.61;1893157;76;21070;-56
2022/10/13 04:50:11;;;;;;;16.50;8.40;;;;;;;4.28;88.22;102056.58;1893058;76;21129;-53
2022/10/13 04:52:39;;;;;;;18.10;7.37;;;;;;;4.39;88.04;102065.77;1893120;76;21244;-54
2022/10/13 04:55:09;;;;;;;16.05;6.95;;;;;;;4.49;87.85;102061.08;1889867;76;21132;-54
2022/10/13 04:57:38;;;;;;;19.02;8.05;;;;;;;4.59;87.67;102069.42;1863209;77;21085;-52
2022/10/13 05:00:08;;;;;;;20.27;8.40;;;;;;;4.68;87.49;102067.72;1863187;77;21057;-52
2022/10/13 05:02:37;;;;;;;21.62;8.68;;;;;;;4.78;87.31;102063.02;1863086;77;21079;-51
2022/10/13 05:05:07;;;;;;;18.25;7.72;;;;;;;4.88;87.17;102062.19;1863071;77;21543;-51
2022/10/13 05:07:36;;;;;;;13.58;6.25;;;;;;;4.98;87.05;102070.53;1863229;77;21113;-50
2022/10/13 05:10:06;;;;;;;14.83;6.05;;;;;;;5.10;86.93;102064.92;1863208;77;21125;-50
2022/10/13 05:12:35;;;;;;;10.00;5.85;;;;;;;5.29;86.72;102068.04;1863248;77;21034;-49
2022/10/13 05:15:04;;;;;;;22.27;8.10;;;;;;;5.56;86.71;102066.41;1863097;77;21040;-47
2022/10/13 05:17:33;;;;;;;12.75;6.05;;;;;;;5.85;87.05;102068.23;1863093;77;21040;-49
2022/10/13 05:20:02;;;;;;;15.85;6.28;;;;;;;6.07;87.50;102068.73;1863215;77;21493;-49
2022/10/13 05:22:31;;;;;;;12.30;6.08;;;;;;;6.25;87.52;102065.67;1863191;77;21072;-51
2022/10/13 05:25:00;;;;;;;12.00;5.58;;;;;;;6.49;86.97;102068.30;1863362;76;21095;-51
2022/10/13 05:27:28;;;;;;;13.70;6.10;;;;;;;6.82;86.30;102070.41;1863138;77;21059;-55
2022/10/13 05:29:57;;;;;;;12.88;5.58;;;;;;;7.13;85.96;102067.72;1863074;77;21039;-56
2022/10/13 05:32:26;;;;;;;11.25;5.30;;;;;;;7.57;85.23;102073.20;1863140;77;21104;-54
2022/10/13 05:34:55;;;;;;;11.88;4.90;;;;;;;8.07;84.00;102068.52;1863203;77;21063;-55
2022/10/13 05:37:25;;;;;;;9.83;4.50;;;;;;;8.76;82.86;102062.71;1862239;76;21072;-53
2022/10/13 05:39:54;;;;;;;14.43;5.72;;;;;;;9.61;81.95;102055.98;1863221;76;21009;-53
2022/10/13 05:42:23;;;;;;;8.78;3.98;;;;;;;10.51;81.04;102059.86;1863100;77;21020;-51
2022/10/13 05:44:52;;;;;;;9.78;4.67;;;;;;;11.30;80.04;102057.91;1863258;77;21082;-50
2022/10/13 05:47:25;;;;;;;16.02;4.58;;;;;;;12.09;78.53;102059.22;1863088;77;21130;-52
2022/10/13 05:49:52;;;;;;;9.95;3.50;;;;;;;12.90;77.47;102054.05;1863049;76;21140;-50
2022/10/13 05:52:23;;;;;;;11.25;4.15;;;;;;;13.55;75.98;102046.45;1863239;77;21023;-51
2022/10/13 05:54:59;;;;;;;11.87;3.90;;;;;;;14.20;75.10;102043.95;1863315;77;21623;-51
2022/10/13 05:57:36;;;;;;;8.33;4.28;;;;;;;14.78;74.17;102051.69;1863108;76;21099;-50
2022/10/13 06:00:16;;;;;;;10.08;3.52;;;;;;;15.32;72.73;102054.15;1863224;76;21050;-51
2022/10/13 06:03:00;;;;;;;9.85;3.87;;;;;;;15.75;71.05;102055.16;1863146;77;21540;-48
2022/10/13 06:05:30;;;;;;;;;;;;;;;16.32;70.38;102052.83;1865877;76;21168;-51
2022/10/13 06:07:59;;;;;;;10.68;3.58;;;;;;;16.82;69.92;102049.80;1863204;77;20117;-48
2022/10/13 06:10:28;;;;;;;16.17;4.53;;;;;;;17.34;68.95;102050.09;1863307;77;21046;-50
2022/10/13 06:12:57;;;;;;;9.95;3.87;;;;;;;17.94;67.17;102051.27;1863180;77;21059;-49
2022/10/13 06:15:25;;;;;;;13.72;4.00;;;;;;;18.44;66.22;102047.44;1863263;77;21043;-49
2022/10/13 06:17:56;;;;;;;9.75;3.02;;;;;;;18.80;63.36;102043.33;1862954;76;21188;-57
2022/10/13 06:20:26;;;;;;;9.20;3.12;;;;;;;19.26;63.59;102039.55;1863025;77;21134;-56
2022/10/13 06:22:56;;;;;;;10.05;3.27;;;;;;;19.65;62.19;102046.27;1863111;77;21039;-56
2022/10/13 06:25:24;;;;;;;8.38;2.95;;;;;;;20.01;60.99;102047.83;1863139;77;21481;-56
2022/10/13 06:28:02;;;;;;;6.65;3.40;;;;;;;20.30;59.84;102046.57;1863140;77;21148;-56
2022/10/13 06:30:31;;;;;;;7.47;2.92;;;;;;;20.88;58.90;102038.20;1862942;77;21110;-56
2022/10/13 06:33:00;;;;;;;14.58;3.10;;;;;;;21.27;57.88;102033.12;1863076;77;21095;-56
2022/10/13 06:35:28;;;;;;;7.37;2.67;;;;;;;21.80;56.71;102034.17;1863198;77;21039;-56
2022/10/13 06:37:58;;;;;;;7.65;2.70;;;;;;;22.22;55.48;102033.56;1863161;76;21177;-56
2022/10/13 06:40:27;;;;;;;10.13;4.20;;;;;;;22.66;54.50;102035.05;1863053;77;21557;-53
2022/10/13 06:42:55;;;;;;;8.45;4.20;;;;;;;22.97;52.76;102032.89;1863012;77;21044;-57
2022/10/13 06:45:25;;;;;;;11.75;4.70;;;;;;;22.99;51.33;102034.98;1863104;77;21497;-56
2022/10/13 06:47:54;;;;;;;8.13;3.72;;;;;;;23.11;50.75;102029.23;1863105;77;21062;-57
2022/10/13 06:50:24;;;;;;;8.75;4.10;;;;;;;23.50;49.69;102040.27;1863037;77;21503;-57
2022/10/13 06:52:55;;;;;;;7.22;2.90;;;;;;;23.54;47.77;102036.87;1863185;77;21056;-57
2022/10/13 06:55:23;;;;;;;6.78;2.70;;;;;;;23.80;47.47;102034.97;1862969;77;21028;-57
2022/10/13 06:57:52;;;;;;;6.53;2.90;;;;;;;24.00;46.63;102031.28;1881279;76;21072;-54
2022/10/13 07:00:21;;;;;;;8.83;3.12;;;;;;;24.23;45.75;102027.66;1893044;76;21026;-54
2022/10/13 07:02:51;;;;;;;9.25;3.90;;;;;;;24.24;44.20;102026.70;1893194;76;21039;-54
2022/10/13 07:05:20;;;;;;;6.50;2.60;;;;;;;24.35;43.79;102022.34;1893085;76;21183;-55
2022/10/13 07:07:52;;;;;;;2.95;2.00;;;;;;;24.64;43.57;102017.38;1893081;76;21027;-50
2022/10/13 07:10:22;;;;;;;6.50;1.98;;;;;;;24.59;42.35;102023.14;1892654;76;21193;-51
2022/10/13 07:12:50;;;;;;;4.58;2.62;;;;;;;24.38;41.89;102020.27;1893102;76;21155;-56
2022/10/13 07:15:19;;;;;;;6.95;3.02;;;;;;;24.38;41.60;102022.08;1893088;76;21072;-56
2022/10/13 07:17:51;;;;;;;5.42;2.50;;;;;;;24.71;41.63;102009.69;1892928;76;21060;-56
2022/10/13 07:20:20;;;;;;;5.62;2.80;;;;;;;25.11;41.26;102011.89;1893078;76;21036;-56
2022/10/13 07:22:49;;;;;;;9.50;3.35;;;;;;;25.51;40.86;102011.34;1892955;76;21601;-56
2022/10/13 07:25:19;;;;;;;6.35;3.20;;;;;;;25.94;40.30;102013.20;1893051;76;21106;-56
2022/10/13 07:27:48;;;;;;;8.13;2.85;;;;;;;25.90;39.50;102015.77;1893157;76;21042;-56
2022/10/13 07:30:17;;;;;;;5.67;2.85;;;;;;;25.54;37.97;102012.45;1893292;76;21438;-56
2022/10/13 07:32:48;;;;;;;6.60;3.00;;;;;;;25.41;38.12;102016.64;1893154;76;21518;-57
2022/10/13 07:35:17;;;;;;;10.72;3.47;;;;;;;25.61;38.10;102006.41;1892979;76;21040;-57
2022/10/13 07:37:46;;;;;;;8.45;3.30;;;;;;;25.84;37.10;102003.66;1893353;76;21037;-52
2022/10/13 07:40:15;;;;;;;7.90;3.08;;;;;;;25.68;36.62;102002.72;1893194;76;21134;-51
2022/10/13 07:42:44;;;;;;;12.58;3.10;;;;;;;25.71;36.62;102003.83;1893121;76;21075;-51
2022/10/13 07:45:12;;;;;;;5.67;3.10;;;;;;;25.93;36.62;102004.73;1893125;76;21077;-52
2022/10/13 07:47:41;;;;;;;5.75;1.98;;;;;;;26.11;36.08;101996.41;1893201;76;21010;-53
2022/10/13 07:50:10;;;;;;;6.70;2.00;;;;;;;26.31;35.50;101992.51;1893230;76;21014;-51
2022/10/13 07:52:39;;;;;;;8.40;2.35;;;;;;;26.25;35.03;101992.55;1893333;76;21040;-51
2022/10/13 07:55:10;;;;;;;4.08;1.80;;;;;;;26.52;35.28;101989.30;1893091;76;21075;-52
2022/10/13 07:57:39;;;;;;;5.72;2.02;;;;;;;26.56;34.58;101993.44;1892971;76;21180;-52
2022/10/13 08:00:10;;;;;;;6.30;3.37;;;;;;;26.62;34.27;101985.83;1893037;76;21153;-52
2022/10/13 08:02:42;;;;;;;4.85;2.05;;;;;;;26.41;32.54;101986.66;1893088;76;21076;-52
2022/10/13 08:05:11;;;;;;;3.95;2.02;;;;;;;26.45;33.01;101981.38;1893161;76;21066;-53
2022/10/13 08:07:39;;;;;;;7.60;2.00;;;;;;;26.70;32.92;101981.94;1893186;76;21202;-52
2022/10/13 08:10:09;;;;;;;3.62;1.80;;;;;;;26.72;32.79;101974.05;1893153;76;21040;-52
2022/10/13 08:12:38;;;;;;;5.05;1.80;;;;;;;26.53;31.94;101976.14;1893043;76;21040;-53
2022/10/13 08:15:08;;;;;;;3.33;2.20;;;;;;;26.41;31.82;101970.45;1861126;77;21058;-53
2022/10/13 08:17:36;;;;;;;3.95;1.70;;;;;;;26.72;31.83;101960.53;1861130;77;21042;-53
2022/10/13 08:20:06;;;;;;;4.47;2.25;;;;;;;26.76;31.02;101971.93;1861123;77;21054;-53
2022/10/13 08:22:35;;;;;;;4.35;2.67;;;;;;;26.55;30.51;101970.11;1861135;77;21078;-53
2022/10/13 08:25:06;;;;;;;6.60;1.95;;;;;;;26.41;30.68;101961.50;1887214;76;21058;-49
2022/10/13 08:27:37;;;;;;;5.85;2.80;;;;;;;26.71;31.10;101967.45;1893295;76;21152;-54
2022/10/13 08:30:07;;;;;;;3.12;1.72;;;;;;;27.25;31.14;101967.53;1893144;76;21038;-54
2022/10/13 08:32:37;;;;;;;3.42;1.72;;;;;;;27.18;30.46;101965.53;1893104;76;21054;-54
2022/10/13 08:35:06;;;;;;;6.83;1.92;;;;;;;26.92;30.03;101962.81;1893159;76;21023;-53
2022/10/13 08:37:35;;;;;;;4.10;1.95;;;;;;;27.15;30.19;101963.97;1893052;76;21100;-54
2022/10/13 08:40:04;;;;;;;2.80;1.30;;;;;;;27.51;30.24;101967.03;1893162;76;21070;-54
2022/10/13 08:42:33;;;;;;;5.00;1.67;;;;;;;27.84;30.07;101963.03;1893083;76;21055;-53
2022/10/13 08:45:04;;;;;;;3.40;1.30;;;;;;;27.98;29.95;101960.91;1892916;76;21333;-54
2022/10/13 08:47:39;;;;;;;4.97;1.52;;;;;;;27.69;29.57;101956.36;1893070;76;21183;-54
2022/10/13 08:50:18;;;;;;;3.85;1.60;;;;;;;27.31;30.18;101954.83;1890961;76;21067;-56
2022/10/13 08:52:49;;;;;;;1.98;1.20;;;;;;;27.30;29.50;101957.19;1893242;76;21054;-50
2022/10/13 08:55:26;;;;;;;2.40;1.00;;;;;;;27.77;29.17;101950.23;1892628;76;21504;-51
2022/10/13 08:57:55;;;;;;;1.95;1.20;;;;;;;28.24;28.48;101955.25;1891764;76;21523;-51
2022/10/13 09:00:27;;;;;;;1.95;1.32;;;;;;;27.67;27.18;101945.67;1863068;76;21102;-51
2022/10/13 09:02:58;;;;;;;2.40;1.25;;;;;;;27.52;27.67;101944.41;1863175;77;21010;-50
2022/10/13 09:05:38;;;;;;;3.65;1.92;;;;;;;27.68;27.64;101941.95;1863204;76;21019;-52
2022/10/13 09:08:10;;;;;;;4.95;1.52;;;;;;;27.81;27.42;101942.17;1863139;76;21532;-52
2022/10/13 09:10:47;;;;;;;5.53;1.52;;;;;;;27.88;27.03;101929.77;1863349;76;21169;-52
2022/10/13 09:13:18;;;;;;;3.17;1.70;;;;;;;28.22;26.94;101925.23;1862795;76;21063;-52
2022/10/13 09:15:49;;;;;;;5.50;3.22;;;;;;;28.51;26.94;101925.13;1832424;78;21042;-51
2022/10/13 09:18:18;;;;;;;4.20;2.50;;;;;;;28.29;26.66;101921.81;1832418;78;21140;-50
2022/10/13 09:20:47;;;;;;;6.28;3.77;;;;;;;28.66;26.67;101914.69;1832389;78;21058;-51
2022/10/13 09:23:22;;;;;;;3.20;2.30;;;;;;;28.93;26.34;101914.34;1832366;78;21074;-51
2022/10/13 09:25:54;;;;;;;5.37;1.65;;;;;;;29.36;26.13;101905.98;1860336;77;21528;-51
2022/10/13 09:28:31;;;;;;;3.83;1.20;;;;;;;29.37;25.71;101912.62;1863210;77;21244;-51
2022/10/13 09:31:27;;;;;;;2.02;1.00;;;;;;;28.81;25.49;101910.48;1863224;77;21092;-49
2022/10/13 09:34:15;;;;;;;2.52;1.40;;;;;;;28.16;26.11;101910.43;1863218;77;21120;-52
2022/10/13 09:37:04;;;;;;;4.90;1.40;;;;;;;27.85;26.09;101897.10;1859919;77;21131;-52
2022/10/13 09:39:33;;;;;;;8.20;1.80;;;;;;;27.48;26.19;101898.33;1863159;77;21451;-52
2022/10/13 09:42:23;;;;;;;3.47;1.47;;;;;;;27.69;26.48;101899.55;1863189;77;21557;-52
2022/10/13 09:45:04;;;;;;;5.83;1.40;;;;;;;28.03;25.96;101891.80;1863102;77;21174;-51
2022/10/13 09:47:33;;;;;;;3.67;1.25;;;;;;;28.64;26.04;101898.61;1862156;76;21066;-51
2022/10/13 09:50:17;;;;;;;5.22;1.20;;;;;;;29.22;25.71;101894.69;1863200;76;21086;-52
2022/10/13 09:52:47;;;;;;;9.08;2.00;;;;;;;29.61;25.53;101890.27;1862943;77;21145;-51
2022/10/13 09:55:34;;;;;;;3.87;1.20;;;;;;;29.60;25.50;101892.66;1863160;77;21043;-52
2022/10/13 09:58:09;;;;;;;4.58;1.30;;;;;;;29.55;25.58;101892.27;1832363;78;21124;-51
2022/10/13 10:00:40;;;;;;;3.62;1.45;;;;;;;29.50;25.21;101894.59;1832611;77;21610;-51
2022/10/13 10:03:17;;;;;;;1.92;0.95;;;;;;;29.53;25.08;101896.12;1832283;78;21578;-56
2022/10/13 10:05:54;;;;;;;1.72;1.00;;;;;;;29.31;24.93;101882.54;1834582;77;21673;-54
2022/10/13 10:08:52;;;;;;;2.45;1.27;;;;;;;29.18;24.96;101890.58;1863156;77;21109;-54
2022/10/13 10:11:31;;;;;;;2.33;1.45;;;;;;;29.04;25.47;101873.45;1863096;77;21042;-55
2022/10/13 10:14:03;;;;;;;5.25;1.22;;;;;;;29.12;25.28;101872.16;1863180;77;21067;-54
2022/10/13 10:16:35;;;;;;;4.45;1.30;;;;;;;28.95;24.98;101868.95;1863506;76;21017;-54
2022/10/13 10:19:28;;;;;;;3.37;1.30;;;;;;;28.58;25.17;101872.60;1862593;76;21103;-53
2022/10/13 10:22:03;;;;;;;4.15;1.20;;;;;;;28.55;25.46;101866.12;1863384;77;21092;-51
2022/10/13 10:24:42;;;;;;;2.10;1.40;;;;;;;28.87;25.60;101865.14;1863124;76;21071;-53
2022/10/13 10:27:13;;;;;;;2.33;1.30;;;;;;;29.18;25.54;101863.94;1861897;76;21606;-53
2022/10/13 10:29:56;;;;;;;5.65;1.75;;;;;;;28.80;25.80;101859.98;1863227;76;21457;-54
2022/10/13 10:32:33;;;;;;;2.00;0.97;;;;;;;28.35;26.15;101860.78;1863303;77;21105;-53
2022/10/13 10:35:11;;;;;;;6.95;1.22;;;;;;;28.25;26.18;101858.09;1863161;77;21043;-53
2022/10/13 10:37:59;;;;;;;3.87;1.35;;;;;;;28.14;26.58;101860.14;1863089;77;21054;-54
2022/10/13 10:40:50;;;;;;;4.45;1.30;;;;;;;28.26;26.64;101857.62;1863273;77;21034;-53
2022/10/13 10:43:31;;;;;;;3.02;1.30;;;;;;;27.84;26.89;101854.78;1863142;77;21454;-55
2022/10/13 10:46:00;;;;;;;2.35;1.37;;;;;;;27.43;27.39;101852.80;1863161;76;21043;-53
2022/10/13 10:48:37;;;;;;;2.65;1.17;;;;;;;27.66;27.27;101849.26;1861180;77;21100;-54
2022/10/13 10:51:08;;;;;;;4.25;1.57;;;;;;;27.86;26.67;101849.23;1863054;77;21142;-54
2022/10/13 10:53:43;;;;;;;3.22;1.42;;;;;;;27.96;26.52;101852.81;1863022;76;21539;-54
2022/10/13 10:56:23;;;;;;;3.70;1.27;;;;;;;27.97;26.70;101843.67;1863360;76;21080;-54
2022/10/13 10:59:03;;;;;;;3.47;1.50;;;;;;;27.84;26.79;101847.17;1862709;77;21117;-55
2022/10/13 11:01:41;;;;;;;6.65;1.60;;;;;;;27.88;27.00;101846.72;1862988;76;21077;-54
2022/10/13 11:04:34;;;;;;;5.15;1.60;;;;;;;28.02;26.92;101844.09;1862793;76;21140;-53
2022/10/13 11:07:04;;;;;;;2.42;1.27;;;;;;;27.84;26.54;101843.95;1863135;77;21093;-51
2022/10/13 11:09:44;;;;;;;5.80;1.10;;;;;;;27.30;27.13;101838.21;1863237;77;21547;-54
2022/10/13 11:12:22;;;;;;;8.13;1.60;;;;;;;26.61;27.69;101840.94;1863250;77;21090;-53
2022/10/13 11:15:12;;;;;;;2.05;1.00;;;;;;;26.00;28.24;101842.16;1863065;77;21051;-53
2022/10/13 11:17:42;;;;;;;4.62;1.00;;;;;;;26.05;28.24;101837.72;1842420;77;21058;-53
2022/10/13 11:20:25;;;;;;;1.80;0.85;;;;;;;26.13;27.87;101837.89;1863203;77;21442;-54
2022/10/13 11:23:03;;;;;;;7.92;2.05;;;;;;;26.29;27.61;101836.55;1863268;77;21180;-52
2022/10/13 11:25:43;;;;;;;2.22;1.00;;;;;;;25.85;27.83;101841.28;1863242;77;21152;-53
2022/10/13 11:28:27;;;;;;;2.98;1.70;;;;;;;25.15;27.98;101834.98;1863143;77;21105;-53
2022/10/13 11:30:58;;;;;;;3.95;1.30;;;;;;;24.70;28.40;101838.30;1863225;77;21043;-52
2022/10/13 11:33:43;;;;;;;2.02;1.20;;;;;;;24.43;28.95;101836.84;1860660;77;21642;-51
2022/10/13 11:36:31;;;;;;;2.22;1.05;;;;;;;23.89;29.27;101837.08;1863256;77;21046;-52
2022/10/13 11:39:03;;;;;;;2.83;1.20;;;;;;;23.27;29.89;101843.09;1862902;77;21019;-49
2022/10/13 11:41:34;;;;;;;2.83;0.85;;;;;;;22.72;30.70;101839.11;1862781;76;21120;-51
2022/10/13 11:44:15;;;;;;;2.55;0.80;;;;;;;22.21;31.22;101844.08;1863339;76;21535;-53
2022/10/13 11:47:17;;;;;;;3.42;0.90;;;;;;;21.87;31.67;101839.72;1862977;76;21107;-50
2022/10/13 11:49:58;;;;;;;2.05;1.10;;;;;;;21.69;31.84;101842.34;1863381;76;21186;-51